sensor_id;sensor_type;location;lat;lon;timestamp;pressure;altitude;pressure_sealevel;temperature;humidity
74524;BME280;63074;44.696;10.358;2022-11-11T00:00:17;101708.03;;;12.27;100.00
74524;BME280;63074;44.696;10.358;2022-11-11T00:02:43;101710.09;;;12.25;100.00
74524;BME280;63074;44.696;10.358;2022-11-11T00:05:08;101711.13;;;12.24;100.00
74524;BME280;63074;44.696;10.358;2022-11-11T00:07:34;101710.09;;;12.18;100.00
74524;BME280;63074;44.696;10.358;2022-11-11T00:09:59;101713.81;;;12.17;100.00
74524;BME280;63074;44.696;10.358;2022-11-11T00:12:24;101714.84;;;12.16;100.00
74524;BME280;63074;44.696;10.358;2022-11-11T00:14:50;101712.34;;;12.15;100.00
74524;BME280;63074;44.696;10.358;2022-11-11T00:17:15;101720.44;;;12.15;100.00
74524;BME280;63074;44.696;10.358;2022-11-11T00:19:59;101721.91;;;12.11;100.00
74524;BME280;63074;44.696;10.358;2022-11-11T00:22:43;101725.63;;;12.16;100.00
74524;BME280;63074;44.696;10.358;2022-11-11T00:25:27;101731.22;;;12.08;100.00
74524;BME280;63074;44.696;10.358;2022-11-11T00:27:53;101728.97;;;12.12;100.00
74524;BME280;63074;44.696;10.358;2022-11-11T00:30:18;101731.66;;;12.12;100.00
74524;BME280;63074;44.696;10.358;2022-11-11T00:32:44;101727.69;;;12.14;100.00
74524;BME280;63074;44.696;10.358;2022-11-11T00:35:09;101733.28;;;12.13;100.00
74524;BME280;63074;44.696;10.358;2022-11-11T00:37:54;101728.13;;;12.11;100.00
74524;BME280;63074;44.696;10.358;2022-11-11T00:40:19;101736.41;;;12.03;100.00
74524;BME280;63074;44.696;10.358;2022-11-11T00:42:44;101740.97;;;12.03;100.00
74524;BME280;63074;44.696;10.358;2022-11-11T00:45:10;101733.72;;;12.03;100.00
74524;BME280;63074;44.696;10.358;2022-11-11T00:47:36;101726.19;;;11.86;100.00
74524;BME280;63074;44.696;10.358;2022-11-11T00:50:22;101732.75;;;11.70;100.00
74524;BME280;63074;44.696;10.358;2022-11-11T00:53:10;101726.97;;;11.73;100.00
74524;BME280;63074;44.696;10.358;2022-11-11T00:55:36;101731.13;;;11.75;100.00
74524;BME280;63074;44.696;10.358;2022-11-11T00:58:01;101732.19;;;11.81;100.00
74524;BME280;63074;44.696;10.358;2022-11-11T01:00:27;101736.69;;;11.74;100.00
74524;BME280;63074;44.696;10.358;2022-11-11T01:02:52;101738.34;;;11.68;100.00
74524;BME280;63074;44.696;10.358;2022-11-11T01:05:18;101743.72;;;11.68;100.00
74524;BME280;63074;44.696;10.358;2022-11-11T01:07:43;101735.09;;;11.79;100.00
74524;BME280;63074;44.696;10.358;2022-11-11T01:10:09;101730.84;;;11.64;100.00
74524;BME280;63074;44.696;10.358;2022-11-11T01:12:37;101736.00;;;11.59;100.00
74524;BME280;63074;44.696;10.358;2022-11-11T01:15:03;101728.38;;;11.62;100.00
74524;BME280;63074;44.696;10.358;2022-11-11T01:17:29;101736.06;;;11.72;100.00
74524;BME280;63074;44.696;10.358;2022-11-11T01:19:56;101734.84;;;11.74;100.00
74524;BME280;63074;44.696;10.358;2022-11-11T01:22:22;101726.53;;;11.69;100.00
74524;BME280;63074;44.696;10.358;2022-11-11T01:24:47;101727.38;;;11.70;100.00
74524;BME280;63074;44.696;10.358;2022-11-11T01:27:13;101724.31;;;11.79;100.00
74524;BME280;63074;44.696;10.358;2022-11-11T01:29:38;101728.28;;;11.83;100.00
74524;BME280;63074;44.696;10.358;2022-11-11T01:32:04;101725.78;;;11.82;100.00
74524;BME280;63074;44.696;10.358;2022-11-11T01:34:29;101716.44;;;11.84;100.00
74524;BME280;63074;44.696;10.358;2022-11-11T01:36:54;101713.75;;;11.84;100.00
74524;BME280;63074;44.696;10.358;2022-11-11T01:39:20;101710.03;;;11.79;100.00
74524;BME280;63074;44.696;10.358;2022-11-11T01:41:45;101716.25;;;11.79;100.00
74524;BME280;63074;44.696;10.358;2022-11-11T01:46:56;101716.69;;;11.83;100.00
74524;BME280;63074;44.696;10.358;2022-11-11T01:54:37;101712.94;;;11.91;100.00
74524;BME280;63074;44.696;10.358;2022-11-11T01:57:10;101717.50;;;11.90;100.00
74524;BME280;63074;44.696;10.358;2022-11-11T01:59:38;101719.19;;;11.98;100.00
74524;BME280;63074;44.696;10.358;2022-11-11T02:02:15;101729.38;;;12.09;100.00
74524;BME280;63074;44.696;10.358;2022-11-11T02:04:43;101726.44;;;11.97;100.00
74524;BME280;63074;44.696;10.358;2022-11-11T02:07:28;101728.13;;;12.05;100.00
74524;BME280;63074;44.696;10.358;2022-11-11T02:09:56;101736.81;;;12.13;100.00
74524;BME280;63074;44.696;10.358;2022-11-11T02:12:21;101730.00;;;12.11;100.00
74524;BME280;63074;44.696;10.358;2022-11-11T02:15:06;101725.00;;;12.08;100.00
74524;BME280;63074;44.696;10.358;2022-11-11T02:17:32;101721.09;;;12.10;100.00
74524;BME280;63074;44.696;10.358;2022-11-11T02:19:59;101728.94;;;12.05;100.00
74524;BME280;63074;44.696;10.358;2022-11-11T02:22:36;101726.28;;;12.12;100.00
74524;BME280;63074;44.696;10.358;2022-11-11T02:25:06;101730.00;;;12.11;100.00
74524;BME280;63074;44.696;10.358;2022-11-11T02:27:34;101737.03;;;12.05;100.00
74524;BME280;63074;44.696;10.358;2022-11-11T02:30:03;101738.09;;;12.11;100.00
74524;BME280;63074;44.696;10.358;2022-11-11T02:32:29;101740.97;;;12.09;100.00
74524;BME280;63074;44.696;10.358;2022-11-11T02:34:55;101746.97;;;12.18;100.00
74524;BME280;63074;44.696;10.358;2022-11-11T02:37:22;101750.72;;;12.17;100.00
74524;BME280;63074;44.696;10.358;2022-11-11T02:39:49;101753.19;;;12.18;100.00
74524;BME280;63074;44.696;10.358;2022-11-11T02:42:18;101750.72;;;12.17;100.00
74524;BME280;63074;44.696;10.358;2022-11-11T02:44:44;101748.03;;;12.17;100.00
74524;BME280;63074;44.696;10.358;2022-11-11T02:47:09;101748.66;;;12.19;100.00
74524;BME280;63074;44.696;10.358;2022-11-11T02:49:35;101746.16;;;12.11;100.00
74524;BME280;63074;44.696;10.358;2022-11-11T02:52:00;101750.50;;;12.05;100.00
74524;BME280;63074;44.696;10.358;2022-11-11T02:54:26;101748.22;;;12.09;100.00
74524;BME280;63074;44.696;10.358;2022-11-11T02:56:51;101752.38;;;12.11;100.00
74524;BME280;63074;44.696;10.358;2022-11-11T02:59:33;101754.25;;;12.17;100.00
74524;BME280;63074;44.696;10.358;2022-11-11T03:01:58;101753.41;;;12.17;100.00
74524;BME280;63074;44.696;10.358;2022-11-11T03:04:24;101752.38;;;12.18;100.00
74524;BME280;63074;44.696;10.358;2022-11-11T03:06:50;101760.06;;;12.21;100.00
74524;BME280;63074;44.696;10.358;2022-11-11T03:09:15;101762.75;;;12.21;100.00
74524;BME280;63074;44.696;10.358;2022-11-11T03:11:41;101765.44;;;12.21;100.00
74524;BME280;63074;44.696;10.358;2022-11-11T03:14:06;101765.03;;;12.17;100.00
74524;BME280;63074;44.696;10.358;2022-11-11T03:16:33;101760.47;;;12.11;100.00
74524;BME280;63074;44.696;10.358;2022-11-11T03:19:16;101761.91;;;12.14;100.00
74524;BME280;63074;44.696;10.358;2022-11-11T03:21:42;101768.31;;;12.13;100.00
74524;BME280;63074;44.696;10.358;2022-11-11T03:24:07;101766.69;;;12.12;100.00
74524;BME280;63074;44.696;10.358;2022-11-11T03:26:33;101767.09;;;12.09;100.00
74524;BME280;63074;44.696;10.358;2022-11-11T03:28:58;101773.50;;;12.14;100.00
74524;BME280;63074;44.696;10.358;2022-11-11T03:31:23;101762.72;;;12.14;100.00
74524;BME280;63074;44.696;10.358;2022-11-11T03:33:49;101761.09;;;12.20;100.00
74524;BME280;63074;44.696;10.358;2022-11-11T03:36:14;101760.47;;;12.18;100.00
74524;BME280;63074;44.696;10.358;2022-11-11T03:38:40;101762.31;;;12.17;100.00
74524;BME280;63074;44.696;10.358;2022-11-11T03:41:05;101764.59;;;12.14;100.00
74524;BME280;63074;44.696;10.358;2022-11-11T03:43:33;101760.88;;;12.15;100.00
74524;BME280;63074;44.696;10.358;2022-11-11T03:46:01;101757.13;;;12.16;100.00
74524;BME280;63074;44.696;10.358;2022-11-11T03:48:29;101755.47;;;12.15;100.00
74524;BME280;63074;44.696;10.358;2022-11-11T03:50:54;101761.72;;;12.22;100.00
74524;BME280;63074;44.696;10.358;2022-11-11T03:53:21;101761.91;;;12.21;100.00
74524;BME280;63074;44.696;10.358;2022-11-11T03:55:48;101761.72;;;12.22;100.00
74524;BME280;63074;44.696;10.358;2022-11-11T03:58:14;101766.69;;;12.25;100.00
74524;BME280;63074;44.696;10.358;2022-11-11T04:00:40;101761.94;;;12.27;100.00
74524;BME280;63074;44.696;10.358;2022-11-11T04:03:06;101766.47;;;12.20;100.00
74524;BME280;63074;44.696;10.358;2022-11-11T04:05:51;101758.59;;;12.18;100.00
74524;BME280;63074;44.696;10.358;2022-11-11T04:08:46;101769.00;;;12.28;100.00
74524;BME280;63074;44.696;10.358;2022-11-11T04:11:43;101771.47;;;12.30;100.00
74524;BME280;63074;44.696;10.358;2022-11-11T04:14:11;101775.84;;;12.31;100.00
74524;BME280;63074;44.696;10.358;2022-11-11T04:16:56;101774.81;;;12.32;100.00
74524;BME280;63074;44.696;10.358;2022-11-11T04:19:21;101763.38;;;12.23;100.00
74524;BME280;63074;44.696;10.358;2022-11-11T04:22:06;101774.38;;;12.22;100.00
74524;BME280;63074;44.696;10.358;2022-11-11T04:24:31;101778.50;;;12.24;100.00
74524;BME280;63074;44.696;10.358;2022-11-11T04:27:17;101778.34;;;12.32;100.00
74524;BME280;63074;44.696;10.358;2022-11-11T04:29:43;101772.53;;;12.35;100.00
74524;BME280;63074;44.696;10.358;2022-11-11T04:32:16;101772.97;;;12.39;100.00
74524;BME280;63074;44.696;10.358;2022-11-11T04:35:02;101767.97;;;12.36;100.00
74524;BME280;63074;44.696;10.358;2022-11-11T04:37:33;101771.91;;;12.33;100.00
74524;BME280;63074;44.696;10.358;2022-11-11T04:39:59;101779.16;;;12.26;100.00
74524;BME280;63074;44.696;10.358;2022-11-11T04:42:43;101774.38;;;12.22;100.00
74524;BME280;63074;44.696;10.358;2022-11-11T04:45:10;101779.13;;;12.20;100.00
74524;BME280;63074;44.696;10.358;2022-11-11T04:48:05;101776.03;;;12.23;100.00
74524;BME280;63074;44.696;10.358;2022-11-11T04:50:36;101789.69;;;12.21;100.00
74524;BME280;63074;44.696;10.358;2022-11-11T04:53:03;101786.59;;;12.24;100.00
74524;BME280;63074;44.696;10.358;2022-11-11T04:55:29;101779.34;;;12.25;100.00
74524;BME280;63074;44.696;10.358;2022-11-11T04:58:14;101782.66;;;12.27;100.00
74524;BME280;63074;44.696;10.358;2022-11-11T05:00:40;101787.44;;;12.25;100.00
74524;BME280;63074;44.696;10.358;2022-11-11T05:03:09;101789.28;;;12.24;100.00
74524;BME280;63074;44.696;10.358;2022-11-11T05:05:47;101786.38;;;12.19;100.00
74524;BME280;63074;44.696;10.358;2022-11-11T05:08:32;101788.88;;;12.21;100.00
74524;BME280;63074;44.696;10.358;2022-11-11T05:11:17;101782.03;;;12.25;100.00
74524;BME280;63074;44.696;10.358;2022-11-11T05:13:43;101783.28;;;12.22;100.00
74524;BME280;63074;44.696;10.358;2022-11-11T05:16:55;101785.97;;;12.22;100.00
74524;BME280;63074;44.696;10.358;2022-11-11T05:19:40;101777.69;;;12.24;100.00
74524;BME280;63074;44.696;10.358;2022-11-11T05:22:28;101786.81;;;12.29;100.00
74524;BME280;63074;44.696;10.358;2022-11-11T05:24:54;101788.09;;;12.33;100.00
74524;BME280;63074;44.696;10.358;2022-11-11T05:27:38;101795.31;;;12.26;100.00
74524;BME280;63074;44.696;10.358;2022-11-11T05:30:05;101798.84;;;12.27;100.00
74524;BME280;63074;44.696;10.358;2022-11-11T05:32:31;101801.97;;;12.30;100.00
74524;BME280;63074;44.696;10.358;2022-11-11T05:34:56;101805.50;;;12.31;100.00
74524;BME280;63074;44.696;10.358;2022-11-11T05:37:22;101805.91;;;12.34;100.00
74524;BME280;63074;44.696;10.358;2022-11-11T05:39:48;101803.84;;;12.36;100.00
74524;BME280;63074;44.696;10.358;2022-11-11T05:42:13;101797.22;;;12.39;100.00
74524;BME280;63074;44.696;10.358;2022-11-11T05:44:39;101812.34;;;12.46;100.00
74524;BME280;63074;44.696;10.358;2022-11-11T05:47:04;101805.91;;;12.47;100.00
74524;BME280;63074;44.696;10.358;2022-11-11T05:49:30;101797.41;;;12.44;100.00
74524;BME280;63074;44.696;10.358;2022-11-11T05:51:56;101800.94;;;12.44;100.00
74524;BME280;63074;44.696;10.358;2022-11-11T05:54:22;101793.88;;;12.43;100.00
74524;BME280;63074;44.696;10.358;2022-11-11T05:56:47;101790.97;;;12.45;100.00
74524;BME280;63074;44.696;10.358;2022-11-11T05:59:13;101789.13;;;12.39;100.00
74524;BME280;63074;44.696;10.358;2022-11-11T06:01:39;101781.44;;;12.42;100.00
74524;BME280;63074;44.696;10.358;2022-11-11T06:04:05;101787.25;;;12.39;100.00
74524;BME280;63074;44.696;10.358;2022-11-11T06:06:31;101781.66;;;12.34;100.00
74524;BME280;63074;44.696;10.358;2022-11-11T06:08:57;101793.91;;;12.37;100.00
74524;BME280;63074;44.696;10.358;2022-11-11T06:11:25;101791.00;;;12.38;100.00
74524;BME280;63074;44.696;10.358;2022-11-11T06:13:52;101801.38;;;12.41;100.00
74524;BME280;63074;44.696;10.358;2022-11-11T06:16:18;101797.63;;;12.49;100.00
74524;BME280;63074;44.696;10.358;2022-11-11T06:18:43;101799.50;;;12.55;100.00
74524;BME280;63074;44.696;10.358;2022-11-11T06:21:08;101799.09;;;12.51;100.00
74524;BME280;63074;44.696;10.358;2022-11-11T06:23:34;101801.56;;;12.53;100.00
74524;BME280;63074;44.696;10.358;2022-11-11T06:25:59;101809.25;;;12.49;100.00
74524;BME280;63074;44.696;10.358;2022-11-11T06:31:19;101813.41;;;12.52;100.00
74524;BME280;63074;44.696;10.358;2022-11-11T06:33:45;101816.50;;;12.49;100.00
74524;BME280;63074;44.696;10.358;2022-11-11T06:36:12;101819.81;;;12.51;100.00
74524;BME280;63074;44.696;10.358;2022-11-11T06:38:39;101824.38;;;12.50;100.00
74524;BME280;63074;44.696;10.358;2022-11-11T06:41:05;101824.81;;;12.54;100.00
74524;BME280;63074;44.696;10.358;2022-11-11T06:43:30;101832.91;;;12.61;100.00
74524;BME280;63074;44.696;10.358;2022-11-11T06:45:56;101830.44;;;12.66;100.00
74524;BME280;63074;44.696;10.358;2022-11-11T06:48:24;101838.72;;;12.71;100.00
74524;BME280;63074;44.696;10.358;2022-11-11T06:50:50;101846.59;;;12.72;100.00
74524;BME280;63074;44.696;10.358;2022-11-11T06:53:18;101844.91;;;12.45;100.00
74524;BME280;63074;44.696;10.358;2022-11-11T06:55:44;101858.94;;;12.21;100.00
74524;BME280;63074;44.696;10.358;2022-11-11T06:58:11;101864.53;;;12.19;100.00
74524;BME280;63074;44.696;10.358;2022-11-11T07:00:38;101877.34;;;12.04;100.00
74524;BME280;63074;44.696;10.358;2022-11-11T07:03:05;101868.03;;;12.06;100.00
74524;BME280;63074;44.696;10.358;2022-11-11T07:05:34;101865.41;;;11.85;100.00
74524;BME280;63074;44.696;10.358;2022-11-11T07:08:08;101863.16;;;11.82;100.00
74524;BME280;63074;44.696;10.358;2022-11-11T07:10:35;101871.78;;;12.12;100.00
74524;BME280;63074;44.696;10.358;2022-11-11T07:13:02;101881.50;;;12.13;100.00
74524;BME280;63074;44.696;10.358;2022-11-11T07:15:28;101880.53;;;12.27;100.00
74524;BME280;63074;44.696;10.358;2022-11-11T07:17:53;101874.97;;;12.35;100.00
74524;BME280;63074;44.696;10.358;2022-11-11T07:20:19;101876.88;;;12.41;100.00
74524;BME280;63074;44.696;10.358;2022-11-11T07:22:45;101867.50;;;12.44;100.00
74524;BME280;63074;44.696;10.358;2022-11-11T07:25:11;101865.00;;;12.42;100.00
74524;BME280;63074;44.696;10.358;2022-11-11T07:27:38;101873.72;;;12.44;100.00
74524;BME280;63074;44.696;10.358;2022-11-11T07:30:04;101866.25;;;12.33;100.00
74524;BME280;63074;44.696;10.358;2022-11-11T07:32:30;101866.28;;;12.46;100.00
74524;BME280;63074;44.696;10.358;2022-11-11T07:34:55;101869.00;;;12.53;100.00
74524;BME280;63074;44.696;10.358;2022-11-11T07:37:21;101868.78;;;12.55;100.00
74524;BME280;63074;44.696;10.358;2022-11-11T07:39:47;101862.13;;;12.50;100.00
74524;BME280;63074;44.696;10.358;2022-11-11T07:42:12;101862.56;;;12.54;100.00
74524;BME280;63074;44.696;10.358;2022-11-11T07:44:37;101868.38;;;12.58;100.00
74524;BME280;63074;44.696;10.358;2022-11-11T07:47:03;101869.00;;;12.60;100.00
74524;BME280;63074;44.696;10.358;2022-11-11T07:49:28;101866.72;;;12.57;100.00
74524;BME280;63074;44.696;10.358;2022-11-11T07:51:54;101863.00;;;12.64;100.00
74524;BME280;63074;44.696;10.358;2022-11-11T07:54:19;101870.69;;;12.61;100.00
74524;BME280;63074;44.696;10.358;2022-11-11T07:56:44;101862.81;;;12.66;100.00
74524;BME280;63074;44.696;10.358;2022-11-11T07:59:10;101871.09;;;12.71;100.00
74524;BME280;63074;44.696;10.358;2022-11-11T08:01:35;101865.28;;;12.74;100.00
74524;BME280;63074;44.696;10.358;2022-11-11T08:04:01;101874.03;;;12.69;100.00
74524;BME280;63074;44.696;10.358;2022-11-11T08:06:26;101873.16;;;12.62;100.00
74524;BME280;63074;44.696;10.358;2022-11-11T08:08:52;101876.72;;;12.69;100.00
74524;BME280;63074;44.696;10.358;2022-11-11T08:11:18;101873.19;;;12.75;100.00
74524;BME280;63074;44.696;10.358;2022-11-11T08:14:03;101882.31;;;12.81;100.00
74524;BME280;63074;44.696;10.358;2022-11-11T08:16:29;101877.56;;;12.96;100.00
74524;BME280;63074;44.696;10.358;2022-11-11T08:18:54;101873.19;;;13.02;100.00
74524;BME280;63074;44.696;10.358;2022-11-11T08:21:23;101874.25;;;13.07;100.00
74524;BME280;63074;44.696;10.358;2022-11-11T08:23:48;101872.59;;;13.13;100.00
74524;BME280;63074;44.696;10.358;2022-11-11T08:26:14;101863.69;;;13.26;100.00
74524;BME280;63074;44.696;10.358;2022-11-11T08:28:39;101876.97;;;13.21;100.00
74524;BME280;63074;44.696;10.358;2022-11-11T08:31:05;101877.38;;;13.31;100.00
74524;BME280;63074;44.696;10.358;2022-11-11T08:33:30;101875.50;;;13.38;100.00
74524;BME280;63074;44.696;10.358;2022-11-11T08:35:58;101875.91;;;13.35;100.00
74524;BME280;63074;44.696;10.358;2022-11-11T08:38:24;101885.88;;;13.41;100.00
74524;BME280;63074;44.696;10.358;2022-11-11T08:40:51;101889.41;;;13.41;100.00
74524;BME280;63074;44.696;10.358;2022-11-11T08:43:17;101895.66;;;13.48;100.00
74524;BME280;63074;44.696;10.358;2022-11-11T08:45:42;101893.97;;;13.34;100.00
74524;BME280;63074;44.696;10.358;2022-11-11T08:48:09;101894.81;;;13.28;100.00
74524;BME280;63074;44.696;10.358;2022-11-11T08:50:39;101894.81;;;13.35;100.00
74524;BME280;63074;44.696;10.358;2022-11-11T08:53:08;101911.63;;;12.97;100.00
74524;BME280;63074;44.696;10.358;2022-11-11T08:55:34;101923.50;;;13.16;100.00
74524;BME280;63074;44.696;10.358;2022-11-11T08:58:03;101923.91;;;13.20;100.00
74524;BME280;63074;44.696;10.358;2022-11-11T09:00:30;101921.94;;;12.74;100.00
74524;BME280;63074;44.696;10.358;2022-11-11T09:03:02;101915.56;;;13.08;100.00
74524;BME280;63074;44.696;10.358;2022-11-11T09:05:28;101919.56;;;13.25;100.00
74524;BME280;63074;44.696;10.358;2022-11-11T09:07:54;101910.22;;;13.28;100.00
74524;BME280;63074;44.696;10.358;2022-11-11T09:10:19;101912.91;;;13.28;100.00
74524;BME280;63074;44.696;10.358;2022-11-11T09:12:45;101913.09;;;13.33;100.00
74524;BME280;63074;44.696;10.358;2022-11-11T09:15:10;101917.25;;;13.29;100.00
74524;BME280;63074;44.696;10.358;2022-11-11T09:17:36;101916.84;;;13.18;100.00
74524;BME280;63074;44.696;10.358;2022-11-11T09:20:01;101925.94;;;13.11;100.00
74524;BME280;63074;44.696;10.358;2022-11-11T09:22:27;101933.00;;;12.99;100.00
74524;BME280;63074;44.696;10.358;2022-11-11T09:24:52;101935.47;;;13.00;100.00
74524;BME280;63074;44.696;10.358;2022-11-11T09:27:18;101935.94;;;13.17;100.00
74524;BME280;63074;44.696;10.358;2022-11-11T09:29:43;101935.50;;;13.13;100.00
74524;BME280;63074;44.696;10.358;2022-11-11T09:32:09;101937.81;;;13.16;100.00
74524;BME280;63074;44.696;10.358;2022-11-11T09:34:34;101942.81;;;13.26;100.00
74524;BME280;63074;44.696;10.358;2022-11-11T09:37:00;101940.72;;;13.35;100.00
74524;BME280;63074;44.696;10.358;2022-11-11T09:39:26;101943.63;;;13.53;100.00
74524;BME280;63074;44.696;10.358;2022-11-11T09:48:03;101951.13;;;13.25;100.00
74524;BME280;63074;44.696;10.358;2022-11-11T09:50:35;101948.81;;;13.35;100.00
74524;BME280;63074;44.696;10.358;2022-11-11T09:53:17;101949.63;;;13.68;100.00
74524;BME280;63074;44.696;10.358;2022-11-11T09:55:48;101942.19;;;13.37;100.00
74524;BME280;63074;44.696;10.358;2022-11-11T09:58:31;101948.59;;;13.76;100.00
74524;BME280;63074;44.696;10.358;2022-11-11T10:01:25;101940.06;;;13.85;100.00
74524;BME280;63074;44.696;10.358;2022-11-11T10:04:26;101936.47;;;13.98;100.00
74524;BME280;63074;44.696;10.358;2022-11-11T10:07:04;101937.13;;;13.87;100.00
74524;BME280;63074;44.696;10.358;2022-11-11T10:10:10;101931.47;;;14.08;100.00
74524;BME280;63074;44.696;10.358;2022-11-11T10:12:47;101923.78;;;14.05;100.00
74524;BME280;63074;44.696;10.358;2022-11-11T10:15:14;101927.00;;;14.34;100.00
74524;BME280;63074;44.696;10.358;2022-11-11T10:18:08;101907.28;;;14.20;100.00
74524;BME280;63074;44.696;10.358;2022-11-11T10:20:40;101919.22;;;14.06;100.00
74524;BME280;63074;44.696;10.358;2022-11-11T10:23:16;101917.63;;;13.85;100.00
74524;BME280;63074;44.696;10.358;2022-11-11T10:25:55;101924.75;;;14.17;100.00
74524;BME280;63074;44.696;10.358;2022-11-11T10:28:28;101924.97;;;14.16;100.00
74524;BME280;63074;44.696;10.358;2022-11-11T10:30:55;101917.06;;;14.21;100.00
74524;BME280;63074;44.696;10.358;2022-11-11T10:33:28;101912.59;;;14.46;100.00
74524;BME280;63074;44.696;10.358;2022-11-11T10:35:59;101909.06;;;14.46;100.00
74524;BME280;63074;44.696;10.358;2022-11-11T10:38:52;101912.69;;;14.71;100.00
74524;BME280;63074;44.696;10.358;2022-11-11T10:41:25;101899.69;;;14.86;100.00
74524;BME280;63074;44.696;10.358;2022-11-11T10:43:53;101899.50;;;14.81;100.00
74524;BME280;63074;44.696;10.358;2022-11-11T10:46:41;101897.38;;;14.90;100.00
74524;BME280;63074;44.696;10.358;2022-11-11T10:49:13;101898.50;;;14.76;100.00
74524;BME280;63074;44.696;10.358;2022-11-11T10:51:50;101905.53;;;14.45;100.00
74524;BME280;63074;44.696;10.358;2022-11-11T10:54:25;101902.25;;;14.75;100.00
74524;BME280;63074;44.696;10.358;2022-11-11T10:59:31;101863.38;;;15.44;100.00
74524;BME280;63074;44.696;10.358;2022-11-11T11:02:12;101856.44;;;15.30;100.00
74524;BME280;63074;44.696;10.358;2022-11-11T11:04:48;101846.63;;;15.72;100.00
74524;BME280;63074;44.696;10.358;2022-11-11T11:07:21;101840.28;;;15.96;100.00
74524;BME280;63074;44.696;10.358;2022-11-11T11:10:02;101844.56;;;15.49;100.00
74524;BME280;63074;44.696;10.358;2022-11-11T11:13:06;101849.44;;;15.83;100.00
74524;BME280;63074;44.696;10.358;2022-11-11T11:15:35;101833.06;;;16.08;100.00
74524;BME280;63074;44.696;10.358;2022-11-11T11:18:08;101828.69;;;16.37;100.00
74524;BME280;63074;44.696;10.358;2022-11-11T11:20:35;101837.59;;;15.78;100.00
74524;BME280;63074;44.696;10.358;2022-11-11T11:23:01;101829.66;;;16.43;100.00
74524;BME280;63074;44.696;10.358;2022-11-11T11:25:29;101808.09;;;16.60;100.00
74524;BME280;63074;44.696;10.358;2022-11-11T11:28:15;101818.75;;;16.31;100.00
74524;BME280;63074;44.696;10.358;2022-11-11T11:30:57;101816.78;;;16.80;100.00
74524;BME280;63074;44.696;10.358;2022-11-11T11:33:23;101809.16;;;17.00;100.00
74524;BME280;63074;44.696;10.358;2022-11-11T11:35:48;101800.13;;;17.35;100.00
74524;BME280;63074;44.696;10.358;2022-11-11T11:38:14;101794.44;;;17.60;100.00
74524;BME280;63074;44.696;10.358;2022-11-11T11:43:37;101782.97;;;18.26;100.00
74524;BME280;63074;44.696;10.358;2022-11-11T11:46:15;101766.56;;;18.21;100.00
74524;BME280;63074;44.696;10.358;2022-11-11T11:57:14;101756.84;;;19.47;100.00
74524;BME280;63074;44.696;10.358;2022-11-11T11:59:50;101744.81;;;20.73;100.00
74524;BME280;63074;44.696;10.358;2022-11-11T12:13:45;101739.78;;;25.80;83.14
74524;BME280;63074;44.696;10.358;2022-11-11T12:19:40;101740.69;;;27.10;75.41
74524;BME280;63074;44.696;10.358;2022-11-11T12:22:46;101741.31;;;26.05;75.04
74524;BME280;63074;44.696;10.358;2022-11-11T12:25:11;101736.34;;;25.69;73.57
74524;BME280;63074;44.696;10.358;2022-11-11T12:30:19;101733.88;;;26.89;66.84
74524;BME280;63074;44.696;10.358;2022-11-11T12:36:10;101720.00;;;23.70;87.42
74524;BME280;63074;44.696;10.358;2022-11-11T12:38:57;101727.59;;;24.28;80.71
74524;BME280;63074;44.696;10.358;2022-11-11T12:44:00;101718.59;;;26.50;76.91
74524;BME280;63074;44.696;10.358;2022-11-11T13:00:30;101715.88;;;19.59;100.00
74524;BME280;63074;44.696;10.358;2022-11-11T13:09:12;101743.59;;;16.85;100.00
74524;BME280;63074;44.696;10.358;2022-11-11T13:17:13;101737.81;;;17.16;100.00
74524;BME280;63074;44.696;10.358;2022-11-11T13:22:20;101739.84;;;17.61;100.00
74524;BME280;63074;44.696;10.358;2022-11-11T13:24:47;101728.22;;;18.22;100.00
74524;BME280;63074;44.696;10.358;2022-11-11T13:30:23;101736.94;;;18.86;100.00
74524;BME280;63074;44.696;10.358;2022-11-11T13:32:59;101740.09;;;17.48;100.00
74524;BME280;63074;44.696;10.358;2022-11-11T13:36:15;101737.94;;;17.62;100.00
74524;BME280;63074;44.696;10.358;2022-11-11T13:38:28;101738.16;;;17.08;100.00
74524;BME280;63074;44.696;10.358;2022-11-11T13:40:58;101754.06;;;16.58;100.00
74524;BME280;63074;44.696;10.358;2022-11-11T13:45:59;101762.28;;;16.40;100.00
74524;BME280;63074;44.696;10.358;2022-11-11T13:48:38;101753.56;;;16.38;100.00
74524;BME280;63074;44.696;10.358;2022-11-11T13:53:50;101761.38;;;16.58;100.00
74524;BME280;63074;44.696;10.358;2022-11-11T13:58:50;101741.69;;;17.20;100.00
74524;BME280;63074;44.696;10.358;2022-11-11T14:01:17;101753.88;;;16.30;100.00
74524;BME280;63074;44.696;10.358;2022-11-11T14:08:51;101755.75;;;17.06;100.00
74524;BME280;63074;44.696;10.358;2022-11-11T14:11:31;101759.78;;;17.27;100.00
74524;BME280;63074;44.696;10.358;2022-11-11T14:13:58;101757.53;;;17.12;100.00
74524;BME280;63074;44.696;10.358;2022-11-11T14:21:50;101762.91;;;17.35;100.00
74524;BME280;63074;44.696;10.358;2022-11-11T14:24:25;101752.69;;;17.14;100.00
74524;BME280;63074;44.696;10.358;2022-11-11T14:27:02;101758.47;;;16.94;100.00
74524;BME280;63074;44.696;10.358;2022-11-11T14:29:34;101766.03;;;16.69;100.00